Murray, Nebraska
Current Conditions -  °F | °C
As of 5:55 AM on Monday 24 Nov 2014 (Local Time) from KPMV Reporting Station
Overcast Overcast  
Wind Chill: 18°   Ceiling: 2800
Heat Index: 29°   Visibility: 10mi
Dew Point: 19°   Wind: 15mph
Humidity: 65%   Direction: 310°NW
Pressure: 29.59"   Gusts: NA
Location:  40.92°N, 95.93°W
Report Text: KPMV 241155Z AUTO 31013KT 10SM OVC028 M02/M07 A2959 RMK AO2 70004 T10171075 10000 21017
Loading
Personal Weather Stations






























Interactive Weather Map New forecast layout! Learn more

10-Day Weather Forecast

Advertisements
Track Severe Weather on mobile